createdAt,value
2022-09-28T00:01:47.384Z,19.70
2022-09-28T00:04:23.000Z,19.80
2022-09-28T00:06:58.779Z,20.00
2022-09-28T00:09:34.669Z,19.90
2022-09-28T00:12:11.023Z,19.90
2022-09-28T00:14:52.482Z,20.20
2022-09-28T00:17:31.063Z,20.20
2022-09-28T00:20:08.894Z,20.30
2022-09-28T00:22:45.255Z,20.40
2022-09-28T00:25:23.576Z,20.40
2022-09-28T00:28:00.005Z,20.60
2022-09-28T00:30:35.962Z,20.90
2022-09-28T00:33:15.100Z,21.30
2022-09-28T00:35:49.989Z,22.00
2022-09-28T00:38:25.273Z,23.30
2022-09-28T00:41:01.679Z,24.20
2022-09-28T00:43:38.778Z,24.40
2022-09-28T00:46:20.174Z,24.70
2022-09-28T00:49:04.406Z,25.50
2022-09-28T00:51:46.183Z,25.90
2022-09-28T00:54:25.971Z,26.40
2022-09-28T00:57:02.250Z,26.80
2022-09-28T00:59:38.468Z,26.50
2022-09-28T01:02:14.867Z,26.60
2022-09-28T01:04:53.511Z,27.30
2022-09-28T01:07:33.212Z,27.60
2022-09-28T01:10:10.033Z,27.70
2022-09-28T01:12:45.854Z,27.30
2022-09-28T01:15:26.062Z,27.90
2022-09-28T01:18:17.816Z,27.90
2022-09-28T01:21:06.677Z,28.70
2022-09-28T01:24:12.382Z,29.20
2022-09-28T01:27:10.323Z,28.70
2022-09-28T01:29:59.470Z,29.10
2022-09-28T01:32:43.205Z,29.60
2022-09-28T01:35:23.060Z,29.60
2022-09-28T01:38:03.108Z,30.00
2022-09-28T01:40:45.560Z,30.30
2022-09-28T01:43:30.922Z,30.10
2022-09-28T01:46:12.964Z,30.40
2022-09-28T01:48:55.953Z,30.20
2022-09-28T01:51:38.773Z,30.10
2022-09-28T01:54:19.379Z,30.30
2022-09-28T01:57:04.621Z,30.50
2022-09-28T01:59:45.228Z,30.70
2022-09-28T02:02:24.409Z,30.70
2022-09-28T02:05:08.293Z,31.10
2022-09-28T02:07:49.721Z,30.50
2022-09-28T02:10:35.480Z,31.30
2022-09-28T02:13:17.840Z,30.80
2022-09-28T02:16:06.903Z,30.90
2022-09-28T02:18:43.677Z,30.60
2022-09-28T02:21:28.286Z,30.10
2022-09-28T02:24:10.812Z,30.60
2022-09-28T02:26:55.605Z,31.00
2022-09-28T02:29:31.565Z,30.70
2022-09-28T02:32:14.047Z,30.40
2022-09-28T02:34:53.618Z,30.60
2022-09-28T02:37:34.697Z,31.00
2022-09-28T02:40:25.523Z,31.50
2022-09-28T02:43:15.756Z,32.10
2022-09-28T02:46:27.191Z,31.70
2022-09-28T02:49:29.842Z,31.00
2022-09-28T02:52:33.722Z,31.40
2022-09-28T02:55:29.304Z,31.60
2022-09-28T02:58:20.759Z,30.70
2022-09-28T03:01:05.011Z,30.90
2022-09-28T03:04:02.242Z,30.60
2022-09-28T03:06:50.994Z,30.20
2022-09-28T03:09:32.005Z,30.10
2022-09-28T03:12:16.279Z,29.80
2022-09-28T03:15:13.916Z,30.90
2022-09-28T03:17:52.573Z,31.60
2022-09-28T03:20:29.333Z,31.40
2022-09-28T03:23:29.683Z,31.70
2022-09-28T03:26:12.981Z,31.90
2022-09-28T03:29:00.427Z,31.30
2022-09-28T03:31:39.123Z,30.30
2022-09-28T03:34:20.023Z,30.80
2022-09-28T03:36:57.344Z,30.90
2022-09-28T03:39:35.360Z,30.50
2022-09-28T03:42:11.720Z,30.40
2022-09-28T03:44:58.223Z,30.20
2022-09-28T03:47:36.504Z,30.30
2022-09-28T03:50:12.749Z,30.30
2022-09-28T03:52:50.178Z,29.70
2022-09-28T03:55:35.216Z,29.70
2022-09-28T03:58:12.597Z,30.10
2022-09-28T04:00:54.295Z,29.70
2022-09-28T04:03:34.919Z,29.70
2022-09-28T04:06:13.212Z,29.90
2022-09-28T04:08:51.050Z,29.40
2022-09-28T04:11:47.617Z,29.30
2022-09-28T04:14:33.763Z,29.10
2022-09-28T04:17:12.693Z,28.90
2022-09-28T04:19:56.989Z,28.90
2022-09-28T04:22:51.888Z,28.30
2022-09-28T04:25:37.300Z,28.20
2022-09-28T04:28:32.297Z,28.10
2022-09-28T04:31:26.381Z,28.20
2022-09-28T04:34:08.475Z,27.60
2022-09-28T04:36:53.755Z,28.30
2022-09-28T04:39:39.433Z,28.20
2022-09-28T04:42:23.365Z,28.20
2022-09-28T04:45:07.353Z,28.30
2022-09-28T04:47:56.655Z,28.20
2022-09-28T04:51:05.431Z,28.40
2022-09-28T04:53:46.395Z,28.60
2022-09-28T04:56:30.618Z,27.90
2022-09-28T04:59:13.738Z,27.90
2022-09-28T05:02:01.418Z,27.60
2022-09-28T05:04:47.028Z,27.80
2022-09-28T05:08:02.994Z,28.00
2022-09-28T05:10:52.982Z,28.00
2022-09-28T05:13:34.913Z,27.70
2022-09-28T05:16:19.362Z,27.70
2022-09-28T05:19:22.519Z,28.10
2022-09-28T05:22:06.311Z,28.10
2022-09-28T05:24:47.801Z,27.70
2022-09-28T05:27:30.559Z,27.40
2022-09-28T05:30:14.771Z,27.60
2022-09-28T05:33:26.249Z,27.70
2022-09-28T05:36:29.614Z,27.50
2022-09-28T05:39:13.075Z,27.60
2022-09-28T05:41:52.123Z,27.70
2022-09-28T05:44:30.259Z,27.80
2022-09-28T05:47:08.232Z,27.80
2022-09-28T05:49:53.506Z,27.80
2022-09-28T05:52:37.545Z,27.70
2022-09-28T05:55:21.758Z,27.80
2022-09-28T05:58:05.616Z,27.80
2022-09-28T06:00:43.379Z,27.70
2022-09-28T06:03:24.113Z,27.80
2022-09-28T06:06:00.252Z,27.90
2022-09-28T06:08:47.598Z,27.70
2022-09-28T06:11:41.120Z,27.70
2022-09-28T06:14:45.870Z,27.60
2022-09-28T06:17:24.981Z,27.50
2022-09-28T06:20:27.567Z,27.70
2022-09-28T06:23:21.653Z,27.80
2022-09-28T06:26:17.526Z,27.90
2022-09-28T06:28:55.689Z,27.60
2022-09-28T06:31:33.162Z,27.40
2022-09-28T06:34:18.944Z,27.30
2022-09-28T06:36:56.551Z,27.20
2022-09-28T06:39:44.056Z,27.30
2022-09-28T06:42:23.917Z,27.40
2022-09-28T06:45:27.176Z,27.20
2022-09-28T06:48:19.323Z,27.20
2022-09-28T06:50:58.393Z,27.30
2022-09-28T06:53:42.764Z,27.50
2022-09-28T06:56:35.776Z,27.50
2022-09-28T06:59:19.943Z,27.40
2022-09-28T07:01:59.582Z,27.40
2022-09-28T07:05:00.711Z,27.40
2022-09-28T07:08:06.841Z,27.40
2022-09-28T07:10:57.644Z,27.50
2022-09-28T07:13:52.094Z,27.20
2022-09-28T07:17:08.504Z,27.40
2022-09-28T07:19:47.838Z,27.60
2022-09-28T07:22:41.835Z,27.70
2022-09-28T07:25:27.307Z,27.70
2022-09-28T07:28:19.922Z,27.70
2022-09-28T07:31:22.318Z,27.90
2022-09-28T07:34:29.192Z,27.90
2022-09-28T07:37:15.727Z,27.80
2022-09-28T07:40:13.194Z,27.80
2022-09-28T07:42:58.077Z,27.60
2022-09-28T07:45:51.049Z,27.70
2022-09-28T07:49:00.921Z,27.60
2022-09-28T07:52:03.978Z,27.80
2022-09-28T07:54:57.050Z,27.80
2022-09-28T07:57:54.655Z,27.60
2022-09-28T08:00:48.908Z,27.70
2022-09-28T08:03:42.494Z,27.70
2022-09-28T08:06:37.158Z,27.90
2022-09-28T08:09:38.299Z,27.90
2022-09-28T08:12:32.016Z,27.70
2022-09-28T08:15:38.358Z,27.60
2022-09-28T08:18:32.840Z,27.70
2022-09-28T08:21:25.607Z,27.80
2022-09-28T08:24:21.269Z,27.80
2022-09-28T08:27:00.798Z,27.80
2022-09-28T08:29:40.297Z,27.70
2022-09-28T08:32:44.287Z,27.60
2022-09-28T08:35:41.650Z,27.50
2022-09-28T08:38:25.034Z,27.20
2022-09-28T08:41:38.195Z,27.10
2022-09-28T08:44:54.005Z,27.10
2022-09-28T08:48:13.370Z,27.10
2022-09-28T08:51:12.082Z,27.10
2022-09-28T08:54:29.742Z,27.00
2022-09-28T08:57:27.716Z,26.70
2022-09-28T09:00:13.154Z,26.80
2022-09-28T09:02:50.850Z,27.00
2022-09-28T09:05:53.339Z,26.90
2022-09-28T09:09:04.125Z,26.90
2022-09-28T09:12:05.887Z,26.90
2022-09-28T09:15:07.629Z,26.70
2022-09-28T09:17:55.214Z,26.70
2022-09-28T09:21:04.562Z,26.50
2022-09-28T09:23:59.068Z,26.50
2022-09-28T09:26:46.929Z,26.40
2022-09-28T09:29:57.953Z,26.40
2022-09-28T09:33:15.371Z,26.40
2022-09-28T09:36:37.595Z,26.40
2022-09-28T09:39:48.269Z,26.40
2022-09-28T09:42:59.431Z,26.40
2022-09-28T09:46:04.083Z,26.40
2022-09-28T09:49:11.555Z,26.40
2022-09-28T09:52:00.931Z,26.50
2022-09-28T09:54:49.063Z,26.40
2022-09-28T09:57:45.301Z,26.40
2022-09-28T10:00:38.968Z,26.30
2022-09-28T10:03:31.807Z,26.20
2022-09-28T10:06:32.793Z,26.00
2022-09-28T10:09:16.270Z,25.80
2022-09-28T10:11:53.912Z,25.70
2022-09-28T10:14:40.452Z,25.60
2022-09-28T10:17:21.733Z,25.50
2022-09-28T10:20:31.786Z,25.60
2022-09-28T10:23:31.257Z,25.50
2022-09-28T10:26:18.074Z,25.40
2022-09-28T10:29:01.638Z,25.30
2022-09-28T10:31:46.569Z,25.30
2022-09-28T10:34:39.579Z,25.20
2022-09-28T10:37:24.020Z,25.20
2022-09-28T10:40:36.941Z,25.10
2022-09-28T10:43:35.265Z,25.10
2022-09-28T10:46:18.453Z,25.00
2022-09-28T10:49:07.607Z,24.90
2022-09-28T10:51:53.354Z,24.90
2022-09-28T10:54:42.074Z,24.90
2022-09-28T10:57:38.287Z,24.80
2022-09-28T11:00:47.410Z,24.70
2022-09-28T11:03:29.900Z,24.70
2022-09-28T11:06:20.336Z,24.60
2022-09-28T11:09:00.669Z,24.60
2022-09-28T11:11:46.812Z,24.50
2022-09-28T11:14:41.863Z,24.50
2022-09-28T11:17:40.260Z,24.50
2022-09-28T11:20:54.766Z,24.40
2022-09-28T11:23:50.872Z,24.40
2022-09-28T11:26:42.530Z,24.40
2022-09-28T11:29:33.424Z,24.30
2022-09-28T11:32:52.113Z,24.30
2022-09-28T11:35:40.495Z,24.30
2022-09-28T11:38:35.782Z,24.20
2022-09-28T11:41:57.176Z,24.20
2022-09-28T11:44:57.915Z,24.10
2022-09-28T11:47:56.749Z,24.10
2022-09-28T11:50:40.308Z,23.90
2022-09-28T11:53:33.892Z,23.90
2022-09-28T11:56:27.787Z,23.90
2022-09-28T11:59:14.519Z,23.90
2022-09-28T12:02:00.778Z,23.80
2022-09-28T12:05:29.957Z,23.80
2022-09-28T12:08:07.906Z,23.80
2022-09-28T12:11:24.438Z,23.80
2022-09-28T12:14:27.591Z,23.80
2022-09-28T12:17:24.816Z,23.70
2022-09-28T12:20:12.123Z,23.70
2022-09-28T12:23:13.696Z,23.70
2022-09-28T12:26:04.060Z,23.60
2022-09-28T12:28:57.051Z,23.60
2022-09-28T12:32:06.230Z,23.60
2022-09-28T12:34:40.674Z,23.50
2022-09-28T12:37:50.544Z,23.50
2022-09-28T12:40:43.002Z,23.50
2022-09-28T12:43:42.305Z,23.50
2022-09-28T12:46:47.686Z,23.40
2022-09-28T12:52:50.236Z,23.40
2022-09-28T12:55:37.819Z,23.40
2022-09-28T12:58:29.578Z,23.30
2022-09-28T13:01:26.254Z,23.30
2022-09-28T13:04:29.924Z,23.30
2022-09-28T13:07:29.498Z,23.30
2022-09-28T13:10:18.682Z,23.30
2022-09-28T13:13:11.889Z,23.30
2022-09-28T13:15:57.642Z,23.20
2022-09-28T13:18:38.179Z,23.20
2022-09-28T13:21:27.497Z,23.20
2022-09-28T13:24:32.159Z,23.20
2022-09-28T13:27:28.786Z,23.20
2022-09-28T13:30:14.078Z,23.20
2022-09-28T13:33:00.083Z,23.20
2022-09-28T13:35:38.870Z,23.20
2022-09-28T13:38:54.889Z,23.20
2022-09-28T13:41:56.678Z,23.20
2022-09-28T13:45:03.838Z,23.10
2022-09-28T13:48:09.228Z,23.10
2022-09-28T13:51:19.892Z,23.10
2022-09-28T13:54:21.716Z,23.10
2022-09-28T13:57:28.252Z,23.10
2022-09-28T14:00:20.906Z,23.10
2022-09-28T14:03:16.164Z,23.00
2022-09-28T14:09:54.573Z,23.00
2022-09-28T14:12:58.062Z,23.00
2022-09-28T14:15:53.201Z,23.00
2022-09-28T14:18:43.872Z,23.00
2022-09-28T14:21:35.524Z,23.00
2022-09-28T14:24:22.382Z,22.90
2022-09-28T14:27:34.730Z,22.90
2022-09-28T14:30:29.233Z,22.90
2022-09-28T14:33:32.475Z,22.90
2022-09-28T14:36:47.751Z,22.90
2022-09-28T14:39:58.123Z,22.80
2022-09-28T14:42:38.048Z,22.80
2022-09-28T14:45:46.988Z,22.80
2022-09-28T14:48:57.866Z,22.80
2022-09-28T14:52:19.293Z,22.80
2022-09-28T14:55:18.343Z,22.80
2022-09-28T14:58:06.851Z,22.70
2022-09-28T15:00:48.796Z,22.70
2022-09-28T15:03:28.295Z,22.70
2022-09-28T15:06:05.840Z,22.80
2022-09-28T15:08:49.693Z,22.70
2022-09-28T15:11:34.477Z,22.60
2022-09-28T15:14:12.093Z,22.70
2022-09-28T15:16:54.135Z,22.60
2022-09-28T15:19:45.154Z,22.60
2022-09-28T15:22:29.757Z,22.60
2022-09-28T15:25:33.177Z,22.60
2022-09-28T15:28:28.011Z,22.50
2022-09-28T15:34:16.498Z,22.50
2022-09-28T15:37:20.799Z,22.50
2022-09-28T15:39:59.518Z,22.50
2022-09-28T15:43:10.322Z,22.50
2022-09-28T15:46:04.752Z,22.50
2022-09-28T15:48:53.117Z,22.50
2022-09-28T15:51:38.994Z,22.40
2022-09-28T15:54:24.685Z,22.50
2022-09-28T15:57:05.839Z,22.50
2022-09-28T15:59:48.067Z,22.50
2022-09-28T16:02:30.519Z,22.50
2022-09-28T16:05:37.131Z,22.40
2022-09-28T16:08:23.961Z,22.40
2022-09-28T16:11:19.610Z,22.50
2022-09-28T16:14:17.630Z,22.40
2022-09-28T16:17:05.433Z,22.40
2022-09-28T16:19:52.979Z,22.50
2022-09-28T16:22:40.704Z,22.40
2022-09-28T16:25:37.647Z,22.40
2022-09-28T16:28:50.266Z,22.40
2022-09-28T16:31:48.012Z,22.40
2022-09-28T16:34:39.072Z,22.40
2022-09-28T16:37:35.314Z,22.30
2022-09-28T16:40:11.575Z,22.30
2022-09-28T16:42:50.896Z,22.30
2022-09-28T16:45:29.934Z,22.30
2022-09-28T16:48:08.361Z,22.30
2022-09-28T16:50:52.677Z,22.30
2022-09-28T16:53:44.396Z,22.30
2022-09-28T16:56:27.631Z,22.30
2022-09-28T16:59:13.770Z,22.30
2022-09-28T17:01:56.053Z,22.20
2022-09-28T17:04:34.098Z,22.30
2022-09-28T17:07:15.892Z,22.30
2022-09-28T17:09:52.342Z,22.20
2022-09-28T17:12:35.435Z,22.30
2022-09-28T17:15:14.125Z,22.20
2022-09-28T17:18:00.141Z,22.20
2022-09-28T17:20:38.862Z,22.20
2022-09-28T17:23:15.310Z,22.20
2022-09-28T17:25:53.286Z,22.20
2022-09-28T17:28:32.491Z,22.20
2022-09-28T17:31:18.678Z,22.20
2022-09-28T17:34:06.088Z,22.10
2022-09-28T17:36:43.376Z,22.20
2022-09-28T17:39:21.953Z,22.20
2022-09-28T17:42:00.345Z,22.20
2022-09-28T17:44:36.184Z,22.20
2022-09-28T17:47:15.823Z,22.20
2022-09-28T17:49:52.788Z,22.20
2022-09-28T17:52:28.266Z,22.10
2022-09-28T17:55:05.629Z,22.20
2022-09-28T17:57:42.561Z,22.10
2022-09-28T18:00:18.999Z,22.10
2022-09-28T18:02:59.580Z,22.20
2022-09-28T18:06:09.080Z,22.10
2022-09-28T18:08:45.032Z,22.10
2022-09-28T18:11:20.651Z,22.10
2022-09-28T18:13:55.927Z,22.00
2022-09-28T18:16:31.520Z,22.00
2022-09-28T18:19:09.133Z,22.10
2022-09-28T18:21:44.539Z,21.90
2022-09-28T18:24:20.255Z,22.00
2022-09-28T18:26:58.444Z,21.90
2022-09-28T18:29:36.114Z,22.00
2022-09-28T18:32:11.723Z,22.00
2022-09-28T18:34:49.419Z,22.00
2022-09-28T18:37:25.356Z,22.00
2022-09-28T18:40:00.482Z,22.00
2022-09-28T18:42:36.949Z,22.00
2022-09-28T18:45:14.429Z,22.00
2022-09-28T18:47:50.291Z,21.90
2022-09-28T18:50:28.130Z,22.00
2022-09-28T18:53:12.872Z,21.90
2022-09-28T18:55:47.934Z,21.90
2022-09-28T18:58:23.218Z,21.90
2022-09-28T19:01:08.651Z,21.90
2022-09-28T19:03:52.364Z,21.80
2022-09-28T19:06:28.813Z,21.90
2022-09-28T19:09:03.703Z,21.80
2022-09-28T19:11:38.689Z,21.80
2022-09-28T19:14:16.171Z,21.80
2022-09-28T19:16:50.836Z,21.90
2022-09-28T19:19:26.243Z,21.90
2022-09-28T19:22:02.579Z,21.90
2022-09-28T19:24:36.668Z,21.90
2022-09-28T19:27:10.630Z,21.90
2022-09-28T19:29:44.435Z,21.90
2022-09-28T19:32:18.054Z,21.80
2022-09-28T19:34:52.082Z,21.80
2022-09-28T19:37:27.749Z,21.80
2022-09-28T19:40:01.861Z,21.80
2022-09-28T19:42:37.391Z,21.80
2022-09-28T19:45:12.496Z,21.90
2022-09-28T19:47:46.552Z,21.80
2022-09-28T19:50:20.799Z,21.80
2022-09-28T19:52:58.251Z,21.80
2022-09-28T19:55:38.582Z,21.80
2022-09-28T19:58:35.680Z,21.80
2022-09-28T20:01:15.392Z,21.80
2022-09-28T20:03:50.102Z,21.80
2022-09-28T20:06:24.245Z,21.80
2022-09-28T20:09:01.216Z,21.80
2022-09-28T20:11:34.893Z,21.80
2022-09-28T20:14:13.206Z,21.80
2022-09-28T20:16:47.817Z,21.80
2022-09-28T20:19:23.384Z,21.70
2022-09-28T20:22:00.657Z,21.70
2022-09-28T20:24:36.824Z,21.70
2022-09-28T20:27:14.104Z,21.70
2022-09-28T20:29:48.057Z,21.80
2022-09-28T20:32:22.387Z,21.80
2022-09-28T20:34:56.467Z,21.80
2022-09-28T20:37:32.717Z,21.80
2022-09-28T20:40:09.491Z,21.80
2022-09-28T20:42:43.968Z,21.80
2022-09-28T20:45:17.489Z,21.80
2022-09-28T20:47:52.012Z,21.80
2022-09-28T20:50:26.067Z,21.80
2022-09-28T20:53:00.297Z,21.80
2022-09-28T20:55:36.528Z,21.70
2022-09-28T20:58:10.688Z,21.80
2022-09-28T21:00:44.403Z,21.70
2022-09-28T21:03:18.356Z,21.70
2022-09-28T21:05:54.718Z,21.80
2022-09-28T21:08:32.615Z,21.70
2022-09-28T21:11:08.470Z,21.70
2022-09-28T21:13:44.211Z,21.70
2022-09-28T21:16:19.187Z,21.60
2022-09-28T21:18:53.649Z,21.60
2022-09-28T21:21:28.790Z,21.70
2022-09-28T21:24:03.711Z,21.60
2022-09-28T21:26:40.243Z,21.60
2022-09-28T21:29:17.236Z,21.70
2022-09-28T21:34:38.238Z,21.60
2022-09-28T21:37:12.309Z,21.60
2022-09-28T21:39:47.083Z,21.60
2022-09-28T21:42:23.013Z,21.60
2022-09-28T21:44:59.443Z,21.60
2022-09-28T21:47:34.411Z,21.60
2022-09-28T21:50:08.398Z,21.60
2022-09-28T21:52:42.854Z,21.60
2022-09-28T21:55:17.271Z,21.60
2022-09-28T21:57:53.733Z,21.70
2022-09-28T22:00:28.291Z,21.70
2022-09-28T22:03:02.441Z,21.70
2022-09-28T22:05:36.872Z,21.70
2022-09-28T22:08:11.271Z,21.70
2022-09-28T22:10:45.596Z,21.70
2022-09-28T22:13:21.515Z,21.70
2022-09-28T22:15:59.358Z,21.70
2022-09-28T22:18:35.219Z,21.70
2022-09-28T22:21:11.772Z,21.70
2022-09-28T22:23:46.027Z,21.60
2022-09-28T22:26:22.079Z,21.60
2022-09-28T22:28:59.176Z,21.60
2022-09-28T22:31:34.632Z,21.60
2022-09-28T22:34:12.925Z,21.60
2022-09-28T22:36:47.750Z,21.60
2022-09-28T22:39:22.416Z,21.60
2022-09-28T22:41:56.047Z,21.60
2022-09-28T22:44:32.055Z,21.70
2022-09-28T22:47:06.699Z,21.60
2022-09-28T22:49:40.026Z,21.60
2022-09-28T22:52:14.485Z,21.60
2022-09-28T22:54:51.026Z,21.60
2022-09-28T22:57:25.479Z,21.60
2022-09-28T23:00:01.364Z,21.60
2022-09-28T23:02:35.480Z,21.60
2022-09-28T23:05:10.134Z,21.60
2022-09-28T23:07:44.798Z,21.60
2022-09-28T23:10:19.324Z,21.70
2022-09-28T23:12:53.621Z,21.60
2022-09-28T23:15:31.181Z,21.60
2022-09-28T23:18:05.986Z,21.60
2022-09-28T23:20:43.509Z,21.60
2022-09-28T23:23:19.484Z,21.60
2022-09-28T23:25:54.478Z,21.70
2022-09-28T23:28:29.538Z,21.80
2022-09-28T23:31:13.151Z,21.80
2022-09-28T23:33:47.379Z,21.80
2022-09-28T23:36:23.064Z,21.80
2022-09-28T23:38:57.554Z,21.80
2022-09-28T23:41:32.547Z,21.80
2022-09-28T23:44:07.884Z,21.80
2022-09-28T23:46:44.222Z,21.80
2022-09-28T23:49:19.445Z,21.90
2022-09-28T23:51:57.330Z,21.90
2022-09-28T23:54:31.169Z,22.00
2022-09-28T23:57:06.240Z,22.00
2022-09-28T23:59:41.127Z,22.00
